createdAt,value
2018-12-09T00:01:27.283Z,98476.07
2018-12-09T00:04:34.771Z,98477.37
2018-12-09T00:07:43.128Z,98469.50
2018-12-09T00:14:07.172Z,98468.54
2018-12-09T00:17:24.624Z,98469.63
2018-12-09T00:20:42.375Z,98462.09
2018-12-09T00:27:06.360Z,98445.36
2018-12-09T00:30:14.303Z,98445.59
2018-12-09T00:33:21.759Z,98440.05
2018-12-09T00:36:29.240Z,98424.16
2018-12-09T00:39:37.470Z,98427.45
2018-12-09T00:42:45.301Z,98421.23
2018-12-09T00:45:52.795Z,98415.56
2018-12-09T00:49:10.159Z,98410.36
2018-12-09T00:52:27.636Z,98410.85
2018-12-09T00:55:35.566Z,98400.49
2018-12-09T00:58:43.452Z,98402.38
2018-12-09T01:02:05.676Z,98393.89
2018-12-09T01:05:13.962Z,98391.55
2018-12-09T01:08:22.326Z,98394.86
2018-12-09T01:11:29.949Z,98397.55
2018-12-09T01:14:37.434Z,98401.20
2018-12-09T01:17:45.435Z,98413.91
2018-12-09T01:20:53.451Z,98402.02
2018-12-09T01:24:00.927Z,98399.91
2018-12-09T01:27:09.405Z,98403.09
2018-12-09T01:30:17.076Z,98432.87
2018-12-09T01:33:35.091Z,98436.27
2018-12-09T01:36:52.551Z,98453.06
2018-12-09T01:40:11.004Z,98458.66
2018-12-09T01:43:18.492Z,98470.66
2018-12-09T01:46:25.992Z,98470.14
2018-12-09T01:49:44.991Z,98479.28
2018-12-09T01:53:19.508Z,98480.45
2018-12-09T01:56:26.972Z,98481.38
2018-12-09T01:59:34.876Z,98486.45
2018-12-09T02:02:43.003Z,98492.90
2018-12-09T02:05:50.495Z,98484.42
2018-12-09T02:09:09.813Z,98490.13
2018-12-09T02:12:17.401Z,98484.45
2018-12-09T02:15:25.384Z,98495.37
2018-12-09T02:18:43.000Z,98504.80
2018-12-09T02:22:00.552Z,98506.34
2018-12-09T02:25:08.943Z,98505.94
2018-12-09T02:28:16.464Z,98518.29
2018-12-09T02:31:34.403Z,98521.35
2018-12-09T02:34:52.371Z,98520.22
2018-12-09T02:38:09.781Z,98522.55
2018-12-09T02:41:27.732Z,98530.53
2018-12-09T02:44:35.292Z,98534.72
2018-12-09T02:47:42.812Z,98546.36
2018-12-09T02:50:50.360Z,98548.52
2018-12-09T02:53:58.520Z,98547.32
2018-12-09T02:57:06.037Z,98543.97
2018-12-09T03:00:24.348Z,98553.97
2018-12-09T03:03:32.386Z,98551.34
2018-12-09T03:06:39.983Z,98549.84
2018-12-09T03:09:47.864Z,98555.26
2018-12-09T03:12:55.704Z,98558.41
2018-12-09T03:16:03.194Z,98565.73
2018-12-09T03:19:11.172Z,98568.99
2018-12-09T03:22:18.704Z,98572.61
2018-12-09T03:25:26.271Z,98570.19
2018-12-09T03:28:43.739Z,98575.87
2018-12-09T03:31:52.042Z,98573.94
2018-12-09T03:35:00.161Z,98571.21
2018-12-09T03:38:07.753Z,98575.19
2018-12-09T03:41:15.278Z,98579.53
2018-12-09T03:44:22.727Z,98580.91
2018-12-09T03:47:30.778Z,98584.70
2018-12-09T03:50:38.332Z,98590.28
2018-12-09T03:53:45.850Z,98584.17
2018-12-09T03:56:53.339Z,98594.85
2018-12-09T04:00:10.897Z,98601.64
2018-12-09T04:03:28.254Z,98595.76
2018-12-09T04:06:45.737Z,98605.50
2018-12-09T04:09:53.923Z,98603.75
2018-12-09T04:13:01.444Z,98608.53
2018-12-09T04:16:08.919Z,98612.05
2018-12-09T04:19:26.585Z,98624.66
2018-12-09T04:22:34.440Z,98624.02
2018-12-09T04:25:42.067Z,98620.11
2018-12-09T04:28:49.582Z,98622.73
2018-12-09T04:32:07.632Z,98620.67
2018-12-09T04:35:15.543Z,98626.36
2018-12-09T04:38:23.128Z,98628.09
2018-12-09T04:41:40.663Z,98629.47
2018-12-09T04:44:48.150Z,98628.80
2018-12-09T04:47:55.755Z,98640.01
2018-12-09T04:51:03.332Z,98640.06
2018-12-09T04:54:10.847Z,98636.24
2018-12-09T04:57:28.385Z,98640.91
2018-12-09T05:00:55.898Z,98638.13
2018-12-09T05:04:03.451Z,98645.28
2018-12-09T05:07:10.903Z,98643.81
2018-12-09T05:10:18.526Z,98647.95
2018-12-09T05:13:36.076Z,98651.48
2018-12-09T05:16:53.608Z,98660.95
2018-12-09T05:20:11.581Z,98663.45
2018-12-09T05:23:19.055Z,98666.55
2018-12-09T05:26:26.643Z,98667.94
2018-12-09T05:29:34.244Z,98670.69
2018-12-09T05:32:51.775Z,98670.57
2018-12-09T05:36:00.230Z,98675.13
2018-12-09T05:39:08.143Z,98681.47
2018-12-09T05:42:16.087Z,98685.66
2018-12-09T05:45:23.615Z,98690.98
2018-12-09T05:48:41.188Z,98690.16
2018-12-09T05:51:58.747Z,98697.37
2018-12-09T05:55:16.216Z,98701.25
2018-12-09T05:58:30.408Z,98706.51
2018-12-09T06:01:37.976Z,98714.23
2018-12-09T06:04:45.560Z,98715.31
2018-12-09T06:07:53.064Z,98715.99
2018-12-09T06:11:10.457Z,98721.45
2018-12-09T06:14:28.428Z,98722.53
2018-12-09T06:17:45.832Z,98732.48
2018-12-09T06:21:03.384Z,98726.82
2018-12-09T06:24:11.495Z,98738.63
2018-12-09T06:27:18.977Z,98747.46
2018-12-09T06:30:26.588Z,98746.84
2018-12-09T06:33:44.021Z,98745.20
2018-12-09T06:37:01.433Z,98749.81
2018-12-09T06:40:09.876Z,98746.61
2018-12-09T06:43:17.340Z,98754.36
2018-12-09T06:46:34.899Z,98753.33
2018-12-09T06:49:52.427Z,98758.97
2018-12-09T06:53:09.848Z,98753.51
2018-12-09T06:56:27.290Z,98763.22
2018-12-09T06:59:45.227Z,98780.29
2018-12-09T07:02:52.723Z,98780.29
2018-12-09T07:06:00.219Z,98778.85
2018-12-09T07:09:18.368Z,98791.56
2018-12-09T07:12:25.845Z,98800.41
2018-12-09T07:15:33.364Z,98798.50
2018-12-09T07:18:40.857Z,98808.02
2018-12-09T07:21:48.390Z,98813.77
2018-12-09T07:24:55.964Z,98816.89
2018-12-09T07:28:03.436Z,98824.20
2018-12-09T07:31:11.066Z,98816.09
2018-12-09T07:34:18.967Z,98835.31
2018-12-09T07:37:36.475Z,98840.33
2018-12-09T07:40:54.262Z,98832.28
2018-12-09T07:44:02.140Z,98849.09
2018-12-09T07:47:09.719Z,98856.28
2018-12-09T07:50:17.331Z,98861.11
2018-12-09T07:53:25.460Z,98858.88
2018-12-09T07:56:33.040Z,98865.69
2018-12-09T07:59:50.679Z,98869.77
2018-12-09T08:03:08.192Z,98879.09
2018-12-09T08:06:27.612Z,98874.19
2018-12-09T08:09:45.219Z,98885.53
2018-12-09T08:12:52.696Z,98880.27
2018-12-09T08:16:00.218Z,98890.02
2018-12-09T08:19:07.695Z,98899.66
2018-12-09T08:22:15.724Z,98902.60
2018-12-09T08:25:23.216Z,98917.18
2018-12-09T08:28:30.691Z,98919.33
2018-12-09T08:31:38.316Z,98918.03
2018-12-09T08:34:45.842Z,98926.38
2018-12-09T08:38:03.315Z,98932.09
2018-12-09T08:41:20.975Z,98932.79
2018-12-09T08:44:28.452Z,98942.64
2018-12-09T08:47:36.067Z,98946.31
2018-12-09T08:50:43.591Z,98948.41
2018-12-09T08:53:51.076Z,98948.75
2018-12-09T08:57:09.127Z,98959.70
2018-12-09T09:00:16.712Z,98956.90
2018-12-09T09:03:24.153Z,98966.87
2018-12-09T09:06:31.703Z,98972.39
2018-12-09T09:09:39.275Z,98984.34
2018-12-09T09:12:46.840Z,98989.63
2018-12-09T09:15:54.288Z,98995.72
2018-12-09T09:19:01.727Z,98989.80
2018-12-09T09:22:09.732Z,98991.19
2018-12-09T09:25:17.280Z,98996.03
2018-12-09T09:28:24.751Z,98995.58
2018-12-09T09:31:32.404Z,98986.66
2018-12-09T09:34:39.912Z,98983.78
2018-12-09T09:37:57.395Z,98991.88
2018-12-09T09:41:14.961Z,98995.80
2018-12-09T09:44:32.376Z,98999.87
2018-12-09T09:47:50.232Z,98994.30
2018-12-09T09:50:57.744Z,98992.23
2018-12-09T09:54:06.480Z,98993.14
2018-12-09T10:00:30.072Z,99000.23
2018-12-09T10:03:38.056Z,98998.73
2018-12-09T10:06:45.583Z,98999.41
2018-12-09T10:09:54.153Z,99004.42
2018-12-09T10:13:01.700Z,98998.68
2018-12-09T10:16:19.215Z,99003.89
2018-12-09T10:19:36.836Z,99033.06
2018-12-09T10:22:53.892Z,99039.23
2018-12-09T10:26:11.356Z,99028.36
2018-12-09T10:29:28.849Z,99028.61
2018-12-09T10:32:46.297Z,99028.41
2018-12-09T10:36:03.735Z,99041.01
2018-12-09T10:39:21.728Z,99042.47
2018-12-09T10:42:29.207Z,99040.34
2018-12-09T10:45:36.662Z,99037.32
2018-12-09T10:48:44.207Z,99032.30
2018-12-09T10:51:51.840Z,99030.01
2018-12-09T10:55:09.843Z,99041.45
2018-12-09T10:58:17.396Z,99030.22
2018-12-09T11:04:55.786Z,99059.61
2018-12-09T11:08:13.261Z,99056.09
2018-12-09T11:11:30.797Z,99067.14
2018-12-09T11:14:48.196Z,99068.57
2018-12-09T11:18:06.243Z,99081.34
2018-12-09T11:21:13.757Z,99083.08
2018-12-09T11:24:21.748Z,99101.22
2018-12-09T11:27:39.108Z,99105.47
2018-12-09T11:30:56.709Z,99110.23
2018-12-09T11:34:14.371Z,99105.25
2018-12-09T11:37:31.844Z,99104.72
2018-12-09T11:40:51.361Z,99094.31
2018-12-09T11:44:08.748Z,99103.55
2018-12-09T11:47:26.819Z,99099.41
2018-12-09T11:50:34.356Z,99103.38
2018-12-09T11:53:41.912Z,99112.39
2018-12-09T11:56:49.392Z,99109.97
2018-12-09T12:00:13.068Z,99112.55
2018-12-09T12:03:20.532Z,99121.67
2018-12-09T12:06:38.043Z,99119.07
2018-12-09T12:09:55.544Z,99115.47
2018-12-09T12:13:12.832Z,99114.38
2018-12-09T12:16:30.511Z,99118.77
2018-12-09T12:19:38.217Z,99114.03
2018-12-09T12:22:45.804Z,99115.50
2018-12-09T12:25:54.346Z,99127.19
2018-12-09T12:29:01.832Z,99128.57
2018-12-09T12:32:09.416Z,99131.84
2018-12-09T12:35:30.021Z,99127.19
2018-12-09T12:38:47.439Z,99142.31
2018-12-09T12:42:05.004Z,99142.22
2018-12-09T12:45:12.787Z,99149.14
2018-12-09T12:48:20.265Z,99150.38
2018-12-09T12:51:28.200Z,99156.84
2018-12-09T12:54:46.009Z,99157.52
2018-12-09T12:57:53.527Z,99173.04
2018-12-09T13:01:01.235Z,99168.50
2018-12-09T13:04:08.808Z,99182.62
2018-12-09T13:07:26.355Z,99184.45
2018-12-09T13:10:45.831Z,99181.45
2018-12-09T13:14:03.667Z,99193.86
2018-12-09T13:17:11.280Z,99202.65
2018-12-09T13:20:18.900Z,99208.64
2018-12-09T13:23:26.856Z,99216.77
2018-12-09T13:26:34.484Z,99214.73
2018-12-09T13:29:42.468Z,99221.19
2018-12-09T13:32:59.948Z,99232.64
2018-12-09T13:36:17.636Z,99240.63
2018-12-09T13:39:25.157Z,99244.23
2018-12-09T13:42:32.656Z,99251.80
2018-12-09T13:45:40.652Z,99254.93
2018-12-09T13:48:58.122Z,99258.55
2018-12-09T13:52:06.104Z,99269.92
2018-12-09T13:55:13.778Z,99269.77
2018-12-09T13:58:21.299Z,99273.39
2018-12-09T14:01:38.724Z,99283.73
2018-12-09T14:04:56.272Z,99294.65
2018-12-09T14:08:14.523Z,99301.67
2018-12-09T14:11:22.556Z,99307.05
2018-12-09T14:14:39.946Z,99312.31
2018-12-09T14:17:47.748Z,99314.03
2018-12-09T14:20:55.557Z,99316.36
2018-12-09T14:24:13.396Z,99329.88
2018-12-09T14:27:30.923Z,99350.77
2018-12-09T14:30:48.285Z,99360.77
2018-12-09T14:34:05.818Z,99372.21
2018-12-09T14:40:56.389Z,99379.06
2018-12-09T14:44:13.843Z,99391.35
2018-12-09T14:47:21.644Z,99393.10
2018-12-09T14:50:29.122Z,99414.02
2018-12-09T14:53:36.635Z,99414.48
2018-12-09T14:56:54.564Z,99417.88
2018-12-09T15:00:12.731Z,99437.09
2018-12-09T15:03:18.084Z,99448.01
2018-12-09T15:06:25.726Z,99440.99
2018-12-09T15:09:34.593Z,99446.41
2018-12-09T15:12:42.456Z,99454.90
2018-12-09T15:15:59.816Z,99458.96
2018-12-09T15:19:17.409Z,99470.22
2018-12-09T15:22:24.976Z,99477.44
2018-12-09T15:25:33.801Z,99479.05
2018-12-09T15:28:41.297Z,99479.95
2018-12-09T15:31:48.756Z,99484.19
2018-12-09T15:34:56.559Z,99493.06
2018-12-09T15:38:13.952Z,99503.58
2018-12-09T15:41:31.512Z,99505.99
2018-12-09T15:44:49.009Z,99508.30
2018-12-09T15:48:06.495Z,99505.28
2018-12-09T15:51:24.567Z,99522.50
2018-12-09T15:54:32.712Z,99534.08
2018-12-09T15:57:50.203Z,99537.95
2018-12-09T16:01:07.711Z,99535.48
2018-12-09T16:04:25.188Z,99548.39
2018-12-09T16:07:42.604Z,99557.73
2018-12-09T16:11:00.140Z,99564.88
2018-12-09T16:14:18.317Z,99580.77
2018-12-09T16:17:26.467Z,99587.06
2018-12-09T16:20:33.983Z,99599.28
2018-12-09T16:23:41.489Z,99605.63
2018-12-09T16:26:48.954Z,99613.69
2018-12-09T16:29:56.430Z,99611.05
2018-12-09T16:33:04.285Z,99614.09
2018-12-09T16:36:12.171Z,99633.34
2018-12-09T16:39:19.693Z,99640.17
2018-12-09T16:42:37.395Z,99628.63
2018-12-09T16:45:55.504Z,99639.69
2018-12-09T16:49:03.063Z,99652.77
2018-12-09T16:52:10.548Z,99656.33
2018-12-09T16:55:18.055Z,99660.05
2018-12-09T16:58:35.704Z,99674.05
2018-12-09T17:01:53.259Z,99667.22
2018-12-09T17:05:10.752Z,99679.33
2018-12-09T17:08:18.461Z,99690.98
2018-12-09T17:11:26.056Z,99697.44
2018-12-09T17:14:33.550Z,99713.50
2018-12-09T17:17:41.024Z,99719.73
2018-12-09T17:20:58.616Z,99732.13
2018-12-09T17:24:16.047Z,99738.84
2018-12-09T17:27:34.138Z,99766.10
2018-12-09T17:30:42.267Z,99757.07
2018-12-09T17:33:59.836Z,99759.78
2018-12-09T17:37:07.377Z,99771.66
2018-12-09T17:40:15.019Z,99770.09
2018-12-09T17:43:22.492Z,99774.03
2018-12-09T17:46:42.009Z,99787.42
2018-12-09T17:49:59.417Z,99801.25
2018-12-09T17:53:16.866Z,99809.39
2018-12-09T17:56:34.449Z,99806.74
2018-12-09T17:59:51.897Z,99828.41
2018-12-09T18:03:09.809Z,99828.28
2018-12-09T18:06:27.377Z,99836.02
2018-12-09T18:09:44.816Z,99847.19
2018-12-09T18:13:02.368Z,99855.63
2018-12-09T18:16:09.927Z,99864.55
2018-12-09T18:19:17.430Z,99863.94
2018-12-09T18:22:24.961Z,99858.06
2018-12-09T18:25:32.488Z,99867.42
2018-12-09T18:28:50.094Z,99880.75
2018-12-09T18:32:09.136Z,99895.70
2018-12-09T18:35:26.756Z,99906.67
2018-12-09T18:38:44.605Z,99912.00
2018-12-09T18:41:52.296Z,99919.44
2018-12-09T18:44:59.773Z,99934.50
2018-12-09T18:48:07.300Z,99940.44
2018-12-09T18:51:24.819Z,99942.05
2018-12-09T18:54:42.223Z,99945.61
2018-12-09T18:57:59.721Z,99957.25
2018-12-09T19:01:17.644Z,99968.58
2018-12-09T19:04:26.228Z,99974.46
2018-12-09T19:07:34.256Z,99972.09
2018-12-09T19:10:42.185Z,99980.26
2018-12-09T19:13:49.800Z,99990.49
2018-12-09T19:16:57.472Z,99999.92
2018-12-09T19:20:06.221Z,100002.85
2018-12-09T19:23:14.234Z,100014.44
2018-12-09T19:26:21.775Z,100034.03
2018-12-09T19:29:29.409Z,100031.64
2018-12-09T19:32:36.987Z,100034.14
2018-12-09T19:35:54.565Z,100045.52
2018-12-09T19:39:12.086Z,100051.14
2018-12-09T19:42:19.968Z,100065.81
2018-12-09T19:45:27.544Z,100066.06
2018-12-09T19:48:35.169Z,100067.05
2018-12-09T19:51:52.667Z,100070.87
2018-12-09T19:55:10.118Z,100082.23
2018-12-09T19:58:27.540Z,100089.23
2018-12-09T20:01:35.545Z,100093.53
2018-12-09T20:04:43.064Z,100106.27
2018-12-09T20:07:50.679Z,100101.19
2018-12-09T20:11:08.280Z,100120.43
2018-12-09T20:14:25.720Z,100134.78
2018-12-09T20:17:43.192Z,100140.05
2018-12-09T20:21:00.584Z,100141.02
2018-12-09T20:24:18.016Z,100152.33
2018-12-09T20:27:35.932Z,100173.33
2018-12-09T20:30:43.443Z,100173.55
2018-12-09T20:33:51.664Z,100182.59
2018-12-09T20:36:59.128Z,100188.97
2018-12-09T20:40:06.562Z,100186.52
2018-12-09T20:43:14.240Z,100200.09
2018-12-09T20:46:21.764Z,100202.39
2018-12-09T20:49:39.284Z,100200.33
2018-12-09T20:52:56.695Z,100219.91
2018-12-09T20:56:14.147Z,100223.47
2018-12-09T20:59:31.671Z,100228.52
2018-12-09T21:02:49.083Z,100232.91
2018-12-09T21:06:06.489Z,100231.38
2018-12-09T21:09:24.004Z,100239.22
2018-12-09T21:12:41.361Z,100244.39
2018-12-09T21:15:58.967Z,100259.80
2018-12-09T21:19:06.981Z,100255.47
2018-12-09T21:22:14.555Z,100257.80
2018-12-09T21:25:22.023Z,100260.88
2018-12-09T21:28:39.948Z,100272.48
2018-12-09T21:31:47.478Z,100279.83
2018-12-09T21:34:55.513Z,100284.82
2018-12-09T21:38:13.021Z,100292.75
2018-12-09T21:41:30.648Z,100294.97
2018-12-09T21:44:48.059Z,100299.10
2018-12-09T21:48:05.538Z,100306.27
2018-12-09T21:51:23.074Z,100312.73
2018-12-09T21:54:40.449Z,100311.39
2018-12-09T21:57:58.366Z,100332.42
2018-12-09T22:01:15.880Z,100335.25
2018-12-09T22:04:33.284Z,100343.47
2018-12-09T22:07:41.217Z,100347.34
2018-12-09T22:10:48.713Z,100350.59
2018-12-09T22:13:56.668Z,100362.39
2018-12-09T22:17:04.186Z,100370.60
2018-12-09T22:20:11.623Z,100384.98
2018-12-09T22:23:19.180Z,100380.89
2018-12-09T22:26:26.675Z,100385.80
2018-12-09T22:29:34.137Z,100395.22
2018-12-09T22:32:51.547Z,100400.51
2018-12-09T22:36:11.061Z,100405.94
2018-12-09T22:39:28.505Z,100412.13
2018-12-09T22:42:45.933Z,100415.77
2018-12-09T22:46:03.376Z,100416.72
2018-12-09T22:49:20.891Z,100427.02
2018-12-09T22:52:38.319Z,100424.63
2018-12-09T22:55:55.756Z,100433.25
2018-12-09T22:59:13.699Z,100440.75
2018-12-09T23:02:26.400Z,100442.04
2018-12-09T23:05:34.315Z,100452.90
2018-12-09T23:08:41.791Z,100460.13
2018-12-09T23:11:49.256Z,100457.54
2018-12-09T23:14:57.013Z,100466.05
2018-12-09T23:18:04.491Z,100479.16
2018-12-09T23:21:21.879Z,100489.71
2018-12-09T23:24:39.771Z,100498.41
2018-12-09T23:27:47.263Z,100490.27
2018-12-09T23:34:10.672Z,100517.29
2018-12-09T23:37:28.044Z,100519.60
2018-12-09T23:40:45.496Z,100537.91
2018-12-09T23:44:03.236Z,100504.38
2018-12-09T23:47:10.706Z,100520.44
2018-12-09T23:50:18.257Z,100522.34
2018-12-09T23:53:25.856Z,100521.56
2018-12-09T23:56:33.324Z,100524.89
2018-12-09T23:59:50.813Z,100526.70
